Fujishiro Maru — JD2313 — position and weather

sailwx.info

Track history (hours):
 
Tides and Currents Weather Stations Pressure Air Temp Water Temp Dewpoint Dewpoint Depression Visibility Wind Speed Wind Dir Waves Ship Positions

Fujishiro Maru

Last reported at 2018-Jul-21 10:35 UTC. Time now 2018-Jul-21 17:30 UTC.
Position N 35°06' E 139°39'.

Length 49 m.

Type: Tanker. MMSI: 431301819.

Date/timePositionNaut miles runAvg speedWind from/ knotsBaromVisibWave heightAir tempDewpointWater temp
2018-Jul-21 10:35N 35°06' E 139°39'1 9.9
2018-Jul-21 10:26N 35°07' E 139°40'4 9.6
2018-Jul-21 09:58N 35°10' E 139°44'7 8.8
2018-Jul-21 09:11N 35°17' E 139°45'510.3
2018-Jul-21 08:42N 35°21' E 139°42'310.6
2018-Jul-21 08:27N 35°24' E 139°42'  
2018-Jul-17 03:09N 35°24' E 139°46'310.1
2018-Jul-17 02:53N 35°21' E 139°45'4 8.7
2018-Jul-17 02:24N 35°17' E 139°46'4 9.4
2018-Jul-17 02:00N 35°13' E 139°47'510.1
2018-Jul-17 01:29N 35°08' E 139°46'  
2018-Jul-13 05:17N 34°11' E 135°07'311.3
2018-Jul-13 05:00N 34°14' E 135°05'611.3
2018-Jul-13 04:26N 34°20' E 135°05'2411.5
2018-Jul-13 02:22N 34°38' E 135°24'3 1.1
2018-Jul-12 23:34N 34°39' E 135°27'1 7.3
2018-Jul-12 23:25N 34°39' E 135°26'9 1.9
2018-Jul-12 18:48N 34°32' E 135°18'9 9.6
2018-Jul-12 17:52N 34°26' E 135°11'3 8.7
2018-Jul-12 17:29N 34°23' E 135°08'4 9.1
2018-Jul-12 17:00N 34°20' E 135°05'4 7.3
2018-Jul-12 16:30N 34°16' E 135°03'4 8.7
2018-Jul-12 16:00N 34°12' E 135°03'  
Track history (hours):
 
Tides and Currents Weather Stations Pressure Air Temp Water Temp Dewpoint Dewpoint Depression Visibility Wind Speed Wind Dir Waves Ship Positions

Fujishiro Maru

Last reported at 2018-Jul-21 10:35 UTC. Time now 2018-Jul-21 17:30 UTC.
Position N 35°06' E 139°39'.

Length 49 m.

Type: Tanker. MMSI: 431301819.

Date/timePositionNaut miles runAvg speedWind from/ knotsBaromVisibWave heightAir tempDewpointWater temp
2018-Jul-21 10:35N 35°06' E 139°39'1 9.9
2018-Jul-21 10:26N 35°07' E 139°40'4 9.6
2018-Jul-21 09:58N 35°10' E 139°44'7 8.8
2018-Jul-21 09:11N 35°17' E 139°45'510.3
2018-Jul-21 08:42N 35°21' E 139°42'310.6
2018-Jul-21 08:27N 35°24' E 139°42'  
2018-Jul-17 03:09N 35°24' E 139°46'310.1
2018-Jul-17 02:53N 35°21' E 139°45'4 8.7
2018-Jul-17 02:24N 35°17' E 139°46'4 9.4
2018-Jul-17 02:00N 35°13' E 139°47'510.1
2018-Jul-17 01:29N 35°08' E 139°46'  
2018-Jul-13 05:17N 34°11' E 135°07'311.3
2018-Jul-13 05:00N 34°14' E 135°05'611.3
2018-Jul-13 04:26N 34°20' E 135°05'2411.5
2018-Jul-13 02:22N 34°38' E 135°24'3 1.1
2018-Jul-12 23:34N 34°39' E 135°27'1 7.3
2018-Jul-12 23:25N 34°39' E 135°26'9 1.9
2018-Jul-12 18:48N 34°32' E 135°18'9 9.6
2018-Jul-12 17:52N 34°26' E 135°11'3 8.7
2018-Jul-12 17:29N 34°23' E 135°08'4 9.1
2018-Jul-12 17:00N 34°20' E 135°05'4 7.3
2018-Jul-12 16:30N 34°16' E 135°03'4 8.7
2018-Jul-12 16:00N 34°12' E 135°03'  

Dump ship's entire track history